sensor_id;sensor_type;location;lat;lon;timestamp;P1;durP1;ratioP1;P2;durP2;ratioP2
13847;SDS011;6994;49.752;6.094;2022-07-10T00:00:45;5.25;;;1.20;;
13847;SDS011;6994;49.752;6.094;2022-07-10T00:03:13;5.50;;;1.55;;
13847;SDS011;6994;49.752;6.094;2022-07-10T00:05:40;1.87;;;1.45;;
13847;SDS011;6994;49.752;6.094;2022-07-10T00:08:07;3.53;;;1.00;;
13847;SDS011;6994;49.752;6.094;2022-07-10T00:10:35;4.70;;;1.30;;
13847;SDS011;6994;49.752;6.094;2022-07-10T00:13:02;1.95;;;1.25;;
13847;SDS011;6994;49.752;6.094;2022-07-10T00:15:29;3.12;;;1.08;;
13847;SDS011;6994;49.752;6.094;2022-07-10T00:17:56;5.32;;;1.45;;
13847;SDS011;6994;49.752;6.094;2022-07-10T00:20:24;3.10;;;1.48;;
13847;SDS011;6994;49.752;6.094;2022-07-10T00:22:51;3.00;;;1.40;;
13847;SDS011;6994;49.752;6.094;2022-07-10T00:25:18;8.32;;;1.42;;
13847;SDS011;6994;49.752;6.094;2022-07-10T00:27:46;6.03;;;1.37;;
13847;SDS011;6994;49.752;6.094;2022-07-10T00:30:14;5.25;;;1.40;;
13847;SDS011;6994;49.752;6.094;2022-07-10T00:32:42;2.87;;;1.20;;
13847;SDS011;6994;49.752;6.094;2022-07-10T00:35:10;4.75;;;1.83;;
13847;SDS011;6994;49.752;6.094;2022-07-10T00:37:37;4.37;;;1.25;;
13847;SDS011;6994;49.752;6.094;2022-07-10T00:40:04;2.25;;;1.40;;
13847;SDS011;6994;49.752;6.094;2022-07-10T00:42:32;3.62;;;1.30;;
13847;SDS011;6994;49.752;6.094;2022-07-10T00:44:59;5.45;;;1.48;;
13847;SDS011;6994;49.752;6.094;2022-07-10T00:47:26;2.90;;;1.02;;
13847;SDS011;6994;49.752;6.094;2022-07-10T00:49:54;1.80;;;1.12;;
13847;SDS011;6994;49.752;6.094;2022-07-10T00:52:22;7.68;;;1.37;;
13847;SDS011;6994;49.752;6.094;2022-07-10T00:54:49;3.17;;;1.23;;
13847;SDS011;6994;49.752;6.094;2022-07-10T00:57:16;2.00;;;0.95;;
13847;SDS011;6994;49.752;6.094;2022-07-10T00:59:44;2.90;;;1.10;;
13847;SDS011;6994;49.752;6.094;2022-07-10T01:02:11;2.80;;;1.30;;
13847;SDS011;6994;49.752;6.094;2022-07-10T01:04:38;1.98;;;1.17;;
13847;SDS011;6994;49.752;6.094;2022-07-10T01:07:05;4.03;;;1.20;;
13847;SDS011;6994;49.752;6.094;2022-07-10T01:09:33;4.03;;;1.62;;
13847;SDS011;6994;49.752;6.094;2022-07-10T01:12:01;3.87;;;1.05;;
13847;SDS011;6994;49.752;6.094;2022-07-10T01:14:28;2.72;;;1.58;;
13847;SDS011;6994;49.752;6.094;2022-07-10T01:16:58;2.83;;;1.25;;
13847;SDS011;6994;49.752;6.094;2022-07-10T01:19:25;2.28;;;1.20;;
13847;SDS011;6994;49.752;6.094;2022-07-10T01:21:52;2.85;;;1.42;;
13847;SDS011;6994;49.752;6.094;2022-07-10T01:24:19;3.55;;;1.33;;
13847;SDS011;6994;49.752;6.094;2022-07-10T01:26:46;2.70;;;1.37;;
13847;SDS011;6994;49.752;6.094;2022-07-10T01:29:14;1.67;;;0.95;;
13847;SDS011;6994;49.752;6.094;2022-07-10T01:31:41;4.43;;;1.20;;
13847;SDS011;6994;49.752;6.094;2022-07-10T01:34:08;1.95;;;1.05;;
13847;SDS011;6994;49.752;6.094;2022-07-10T01:36:38;1.95;;;0.90;;
13847;SDS011;6994;49.752;6.094;2022-07-10T01:39:05;4.25;;;1.10;;
13847;SDS011;6994;49.752;6.094;2022-07-10T01:41:33;2.20;;;0.90;;
13847;SDS011;6994;49.752;6.094;2022-07-10T01:44:00;2.62;;;0.93;;
13847;SDS011;6994;49.752;6.094;2022-07-10T01:46:28;3.92;;;1.00;;
13847;SDS011;6994;49.752;6.094;2022-07-10T01:48:56;2.42;;;0.85;;
13847;SDS011;6994;49.752;6.094;2022-07-10T01:51:24;3.08;;;1.05;;
13847;SDS011;6994;49.752;6.094;2022-07-10T01:53:51;3.28;;;0.82;;
13847;SDS011;6994;49.752;6.094;2022-07-10T01:56:19;3.53;;;1.20;;
13847;SDS011;6994;49.752;6.094;2022-07-10T01:58:46;4.03;;;1.23;;
13847;SDS011;6994;49.752;6.094;2022-07-10T02:01:13;4.12;;;1.40;;
13847;SDS011;6994;49.752;6.094;2022-07-10T02:03:40;3.83;;;0.88;;
13847;SDS011;6994;49.752;6.094;2022-07-10T02:06:25;3.55;;;1.00;;
13847;SDS011;6994;49.752;6.094;2022-07-10T02:08:53;2.85;;;1.30;;
13847;SDS011;6994;49.752;6.094;2022-07-10T02:11:20;2.20;;;1.20;;
13847;SDS011;6994;49.752;6.094;2022-07-10T02:13:47;4.10;;;1.00;;
13847;SDS011;6994;49.752;6.094;2022-07-10T02:16:14;4.47;;;1.50;;
13847;SDS011;6994;49.752;6.094;2022-07-10T02:18:42;3.22;;;1.30;;
13847;SDS011;6994;49.752;6.094;2022-07-10T02:21:09;1.37;;;0.98;;
13847;SDS011;6994;49.752;6.094;2022-07-10T02:23:36;7.03;;;1.33;;
13847;SDS011;6994;49.752;6.094;2022-07-10T02:26:04;4.15;;;1.23;;
13847;SDS011;6994;49.752;6.094;2022-07-10T02:28:32;3.70;;;0.80;;
13847;SDS011;6994;49.752;6.094;2022-07-10T02:30:59;1.42;;;1.10;;
13847;SDS011;6994;49.752;6.094;2022-07-10T02:33:26;6.53;;;1.37;;
13847;SDS011;6994;49.752;6.094;2022-07-10T02:35:53;4.12;;;1.23;;
13847;SDS011;6994;49.752;6.094;2022-07-10T02:38:21;1.58;;;1.10;;
13847;SDS011;6994;49.752;6.094;2022-07-10T02:40:48;2.15;;;1.17;;
13847;SDS011;6994;49.752;6.094;2022-07-10T02:43:15;1.75;;;1.40;;
13847;SDS011;6994;49.752;6.094;2022-07-10T02:45:42;1.67;;;1.10;;
13847;SDS011;6994;49.752;6.094;2022-07-10T02:48:09;3.47;;;1.50;;
13847;SDS011;6994;49.752;6.094;2022-07-10T02:50:37;3.65;;;1.62;;
13847;SDS011;6994;49.752;6.094;2022-07-10T02:53:04;6.72;;;1.17;;
13847;SDS011;6994;49.752;6.094;2022-07-10T02:55:31;4.32;;;1.40;;
13847;SDS011;6994;49.752;6.094;2022-07-10T02:57:58;3.70;;;1.15;;
13847;SDS011;6994;49.752;6.094;2022-07-10T03:00:27;4.80;;;1.48;;
13847;SDS011;6994;49.752;6.094;2022-07-10T03:02:54;3.85;;;1.62;;
13847;SDS011;6994;49.752;6.094;2022-07-10T03:05:22;3.12;;;1.20;;
13847;SDS011;6994;49.752;6.094;2022-07-10T03:07:50;5.45;;;1.50;;
13847;SDS011;6994;49.752;6.094;2022-07-10T03:10:18;4.68;;;1.45;;
13847;SDS011;6994;49.752;6.094;2022-07-10T03:12:46;3.17;;;1.20;;
13847;SDS011;6994;49.752;6.094;2022-07-10T03:15:14;3.50;;;1.35;;
13847;SDS011;6994;49.752;6.094;2022-07-10T03:17:42;2.58;;;1.08;;
13847;SDS011;6994;49.752;6.094;2022-07-10T03:20:09;6.25;;;1.48;;
13847;SDS011;6994;49.752;6.094;2022-07-10T03:22:37;4.35;;;1.30;;
13847;SDS011;6994;49.752;6.094;2022-07-10T03:25:04;5.30;;;1.30;;
13847;SDS011;6994;49.752;6.094;2022-07-10T03:27:31;1.65;;;1.08;;
13847;SDS011;6994;49.752;6.094;2022-07-10T03:29:58;7.35;;;1.75;;
13847;SDS011;6994;49.752;6.094;2022-07-10T03:32:25;3.92;;;1.50;;
13847;SDS011;6994;49.752;6.094;2022-07-10T03:34:53;2.55;;;1.10;;
13847;SDS011;6994;49.752;6.094;2022-07-10T03:37:20;3.62;;;1.33;;
13847;SDS011;6994;49.752;6.094;2022-07-10T03:39:48;8.27;;;1.17;;
13847;SDS011;6994;49.752;6.094;2022-07-10T03:42:16;4.68;;;1.30;;
13847;SDS011;6994;49.752;6.094;2022-07-10T03:44:44;8.80;;;2.00;;
13847;SDS011;6994;49.752;6.094;2022-07-10T03:47:12;4.30;;;1.42;;
13847;SDS011;6994;49.752;6.094;2022-07-10T03:49:40;1.62;;;1.12;;
13847;SDS011;6994;49.752;6.094;2022-07-10T03:52:08;2.62;;;1.58;;
13847;SDS011;6994;49.752;6.094;2022-07-10T03:54:36;4.12;;;1.40;;
13847;SDS011;6994;49.752;6.094;2022-07-10T03:57:04;2.50;;;1.33;;
13847;SDS011;6994;49.752;6.094;2022-07-10T03:59:49;5.45;;;1.35;;
13847;SDS011;6994;49.752;6.094;2022-07-10T04:02:16;4.25;;;1.60;;
13847;SDS011;6994;49.752;6.094;2022-07-10T04:04:44;2.80;;;1.50;;
13847;SDS011;6994;49.752;6.094;2022-07-10T04:07:12;4.82;;;1.70;;
13847;SDS011;6994;49.752;6.094;2022-07-10T04:09:40;4.47;;;1.40;;
13847;SDS011;6994;49.752;6.094;2022-07-10T04:12:08;4.40;;;1.67;;
13847;SDS011;6994;49.752;6.094;2022-07-10T04:14:35;6.82;;;1.40;;
13847;SDS011;6994;49.752;6.094;2022-07-10T04:17:03;5.82;;;2.10;;
13847;SDS011;6994;49.752;6.094;2022-07-10T04:19:30;5.07;;;2.47;;
13847;SDS011;6994;49.752;6.094;2022-07-10T04:21:58;1.75;;;1.60;;
13847;SDS011;6994;49.752;6.094;2022-07-10T04:24:26;4.32;;;1.83;;
13847;SDS011;6994;49.752;6.094;2022-07-10T04:26:54;2.55;;;1.48;;
13847;SDS011;6994;49.752;6.094;2022-07-10T04:29:22;6.18;;;1.60;;
13847;SDS011;6994;49.752;6.094;2022-07-10T04:31:49;10.65;;;1.87;;
13847;SDS011;6994;49.752;6.094;2022-07-10T04:34:16;4.10;;;1.40;;
13847;SDS011;6994;49.752;6.094;2022-07-10T04:36:44;5.95;;;1.77;;
13847;SDS011;6994;49.752;6.094;2022-07-10T04:39:11;6.60;;;2.33;;
13847;SDS011;6994;49.752;6.094;2022-07-10T04:41:38;4.12;;;1.87;;
13847;SDS011;6994;49.752;6.094;2022-07-10T04:44:05;7.12;;;2.00;;
13847;SDS011;6994;49.752;6.094;2022-07-10T04:46:32;3.55;;;1.70;;
13847;SDS011;6994;49.752;6.094;2022-07-10T04:49:00;5.50;;;1.65;;
13847;SDS011;6994;49.752;6.094;2022-07-10T04:51:27;4.22;;;1.50;;
13847;SDS011;6994;49.752;6.094;2022-07-10T04:53:55;4.72;;;1.48;;
13847;SDS011;6994;49.752;6.094;2022-07-10T04:56:23;5.75;;;1.67;;
13847;SDS011;6994;49.752;6.094;2022-07-10T04:58:51;3.45;;;1.35;;
13847;SDS011;6994;49.752;6.094;2022-07-10T05:01:19;2.12;;;1.65;;
13847;SDS011;6994;49.752;6.094;2022-07-10T05:03:47;5.78;;;1.90;;
13847;SDS011;6994;49.752;6.094;2022-07-10T05:06:15;2.85;;;2.10;;
13847;SDS011;6994;49.752;6.094;2022-07-10T05:08:43;5.93;;;1.70;;
13847;SDS011;6994;49.752;6.094;2022-07-10T05:11:11;2.28;;;1.52;;
13847;SDS011;6994;49.752;6.094;2022-07-10T05:13:38;7.62;;;2.25;;
13847;SDS011;6994;49.752;6.094;2022-07-10T05:16:05;2.87;;;1.27;;
13847;SDS011;6994;49.752;6.094;2022-07-10T05:18:32;1.55;;;1.42;;
13847;SDS011;6994;49.752;6.094;2022-07-10T05:21:00;6.40;;;1.75;;
13847;SDS011;6994;49.752;6.094;2022-07-10T05:23:27;7.57;;;3.95;;
13847;SDS011;6994;49.752;6.094;2022-07-10T05:25:55;5.22;;;1.62;;
13847;SDS011;6994;49.752;6.094;2022-07-10T05:28:22;2.92;;;1.35;;
13847;SDS011;6994;49.752;6.094;2022-07-10T05:30:49;7.05;;;1.73;;
13847;SDS011;6994;49.752;6.094;2022-07-10T05:33:16;5.47;;;1.80;;
13847;SDS011;6994;49.752;6.094;2022-07-10T05:35:43;4.32;;;1.37;;
13847;SDS011;6994;49.752;6.094;2022-07-10T05:38:11;3.45;;;1.37;;
13847;SDS011;6994;49.752;6.094;2022-07-10T05:40:39;6.18;;;1.62;;
13847;SDS011;6994;49.752;6.094;2022-07-10T05:43:07;3.90;;;1.55;;
13847;SDS011;6994;49.752;6.094;2022-07-10T05:45:34;2.87;;;1.10;;
13847;SDS011;6994;49.752;6.094;2022-07-10T05:48:02;4.80;;;1.27;;
13847;SDS011;6994;49.752;6.094;2022-07-10T05:50:30;3.33;;;1.05;;
13847;SDS011;6994;49.752;6.094;2022-07-10T05:52:58;5.82;;;1.75;;
13847;SDS011;6994;49.752;6.094;2022-07-10T05:55:26;4.90;;;1.23;;
13847;SDS011;6994;49.752;6.094;2022-07-10T05:57:54;8.90;;;1.42;;
13847;SDS011;6994;49.752;6.094;2022-07-10T06:00:22;5.05;;;1.35;;
13847;SDS011;6994;49.752;6.094;2022-07-10T06:02:49;6.07;;;1.30;;
13847;SDS011;6994;49.752;6.094;2022-07-10T06:05:16;3.30;;;1.17;;
13847;SDS011;6994;49.752;6.094;2022-07-10T06:07:43;5.15;;;1.37;;
13847;SDS011;6994;49.752;6.094;2022-07-10T06:10:10;4.60;;;1.12;;
13847;SDS011;6994;49.752;6.094;2022-07-10T06:12:38;5.50;;;1.35;;
13847;SDS011;6994;49.752;6.094;2022-07-10T06:15:05;2.70;;;1.10;;
13847;SDS011;6994;49.752;6.094;2022-07-10T06:17:32;1.85;;;0.85;;
13847;SDS011;6994;49.752;6.094;2022-07-10T06:19:59;3.42;;;1.30;;
13847;SDS011;6994;49.752;6.094;2022-07-10T06:22:26;6.10;;;1.15;;
13847;SDS011;6994;49.752;6.094;2022-07-10T06:24:57;5.07;;;1.02;;
13847;SDS011;6994;49.752;6.094;2022-07-10T06:27:30;1.48;;;0.85;;
13847;SDS011;6994;49.752;6.094;2022-07-10T06:29:57;2.30;;;0.88;;
13847;SDS011;6994;49.752;6.094;2022-07-10T06:32:24;3.12;;;1.40;;
13847;SDS011;6994;49.752;6.094;2022-07-10T06:34:53;4.47;;;1.10;;
13847;SDS011;6994;49.752;6.094;2022-07-10T06:37:20;3.25;;;1.23;;
13847;SDS011;6994;49.752;6.094;2022-07-10T06:39:48;4.95;;;0.98;;
13847;SDS011;6994;49.752;6.094;2022-07-10T06:42:16;0.80;;;0.80;;
13847;SDS011;6994;49.752;6.094;2022-07-10T06:44:44;1.77;;;0.90;;
13847;SDS011;6994;49.752;6.094;2022-07-10T06:47:13;1.65;;;1.00;;
13847;SDS011;6994;49.752;6.094;2022-07-10T06:49:57;5.12;;;1.08;;
13847;SDS011;6994;49.752;6.094;2022-07-10T06:52:25;2.28;;;1.10;;
13847;SDS011;6994;49.752;6.094;2022-07-10T06:54:52;3.37;;;0.95;;
13847;SDS011;6994;49.752;6.094;2022-07-10T06:57:19;2.45;;;1.37;;
13847;SDS011;6994;49.752;6.094;2022-07-10T06:59:46;3.45;;;1.05;;
13847;SDS011;6994;49.752;6.094;2022-07-10T07:02:13;4.57;;;0.77;;
13847;SDS011;6994;49.752;6.094;2022-07-10T07:04:41;2.28;;;0.50;;
13847;SDS011;6994;49.752;6.094;2022-07-10T07:07:08;2.97;;;0.73;;
13847;SDS011;6994;49.752;6.094;2022-07-10T07:09:36;3.17;;;0.60;;
13847;SDS011;6994;49.752;6.094;2022-07-10T07:12:05;3.25;;;0.88;;
13847;SDS011;6994;49.752;6.094;2022-07-10T07:14:32;1.98;;;0.60;;
13847;SDS011;6994;49.752;6.094;2022-07-10T07:17:00;1.40;;;0.80;;
13847;SDS011;6994;49.752;6.094;2022-07-10T07:19:28;4.15;;;1.35;;
13847;SDS011;6994;49.752;6.094;2022-07-10T07:21:58;3.97;;;1.70;;
13847;SDS011;6994;49.752;6.094;2022-07-10T07:24:42;5.70;;;1.15;;
13847;SDS011;6994;49.752;6.094;2022-07-10T07:27:10;1.80;;;0.70;;
13847;SDS011;6994;49.752;6.094;2022-07-10T07:29:37;2.08;;;0.82;;
13847;SDS011;6994;49.752;6.094;2022-07-10T07:32:04;1.50;;;0.70;;
13847;SDS011;6994;49.752;6.094;2022-07-10T07:34:31;7.18;;;0.88;;
13847;SDS011;6994;49.752;6.094;2022-07-10T07:36:59;1.55;;;0.62;;
13847;SDS011;6994;49.752;6.094;2022-07-10T07:39:26;2.10;;;0.93;;
13847;SDS011;6994;49.752;6.094;2022-07-10T07:41:53;2.35;;;0.60;;
13847;SDS011;6994;49.752;6.094;2022-07-10T07:44:20;3.87;;;1.00;;
13847;SDS011;6994;49.752;6.094;2022-07-10T07:46:48;1.30;;;0.90;;
13847;SDS011;6994;49.752;6.094;2022-07-10T07:49:16;1.95;;;0.60;;
13847;SDS011;6994;49.752;6.094;2022-07-10T07:51:44;3.75;;;0.88;;
13847;SDS011;6994;49.752;6.094;2022-07-10T07:54:12;1.02;;;0.88;;
13847;SDS011;6994;49.752;6.094;2022-07-10T07:56:40;5.10;;;0.85;;
13847;SDS011;6994;49.752;6.094;2022-07-10T07:59:08;2.37;;;0.82;;
13847;SDS011;6994;49.752;6.094;2022-07-10T08:01:36;0.73;;;0.60;;
13847;SDS011;6994;49.752;6.094;2022-07-10T08:04:04;4.80;;;1.23;;
13847;SDS011;6994;49.752;6.094;2022-07-10T08:06:31;2.42;;;0.73;;
13847;SDS011;6994;49.752;6.094;2022-07-10T08:08:58;3.55;;;0.98;;
13847;SDS011;6994;49.752;6.094;2022-07-10T08:11:26;4.30;;;1.02;;
13847;SDS011;6994;49.752;6.094;2022-07-10T08:13:53;3.70;;;0.70;;
13847;SDS011;6994;49.752;6.094;2022-07-10T08:16:20;2.05;;;0.80;;
13847;SDS011;6994;49.752;6.094;2022-07-10T08:18:47;2.67;;;1.02;;
13847;SDS011;6994;49.752;6.094;2022-07-10T08:21:14;2.92;;;1.00;;
13847;SDS011;6994;49.752;6.094;2022-07-10T08:23:42;2.35;;;0.80;;
13847;SDS011;6994;49.752;6.094;2022-07-10T08:26:10;3.37;;;1.00;;
13847;SDS011;6994;49.752;6.094;2022-07-10T08:28:38;2.28;;;0.65;;
13847;SDS011;6994;49.752;6.094;2022-07-10T08:31:06;1.33;;;0.60;;
13847;SDS011;6994;49.752;6.094;2022-07-10T08:33:34;4.90;;;0.88;;
13847;SDS011;6994;49.752;6.094;2022-07-10T08:36:03;1.10;;;0.70;;
13847;SDS011;6994;49.752;6.094;2022-07-10T08:38:30;5.05;;;1.15;;
13847;SDS011;6994;49.752;6.094;2022-07-10T08:40:57;2.62;;;0.98;;
13847;SDS011;6994;49.752;6.094;2022-07-10T08:43:25;2.20;;;1.20;;
13847;SDS011;6994;49.752;6.094;2022-07-10T08:45:52;0.88;;;0.68;;
13847;SDS011;6994;49.752;6.094;2022-07-10T08:48:22;2.33;;;0.98;;
13847;SDS011;6994;49.752;6.094;2022-07-10T08:50:52;2.78;;;1.17;;
13847;SDS011;6994;49.752;6.094;2022-07-10T08:53:23;3.20;;;0.70;;
13847;SDS011;6994;49.752;6.094;2022-07-10T08:55:49;4.50;;;1.20;;
13847;SDS011;6994;49.752;6.094;2022-07-10T08:58:16;3.37;;;1.00;;
13847;SDS011;6994;49.752;6.094;2022-07-10T09:00:44;4.78;;;0.98;;
13847;SDS011;6994;49.752;6.094;2022-07-10T09:03:11;3.00;;;1.02;;
13847;SDS011;6994;49.752;6.094;2022-07-10T09:05:38;3.37;;;0.90;;
13847;SDS011;6994;49.752;6.094;2022-07-10T09:08:28;5.05;;;1.00;;
13847;SDS011;6994;49.752;6.094;2022-07-10T09:10:51;5.20;;;1.20;;
13847;SDS011;6994;49.752;6.094;2022-07-10T09:13:18;6.75;;;1.42;;
13847;SDS011;6994;49.752;6.094;2022-07-10T09:15:49;4.87;;;2.28;;
13847;SDS011;6994;49.752;6.094;2022-07-10T09:18:18;3.62;;;1.35;;
13847;SDS011;6994;49.752;6.094;2022-07-10T09:20:42;2.33;;;1.15;;
13847;SDS011;6994;49.752;6.094;2022-07-10T09:23:17;4.07;;;1.10;;
13847;SDS011;6994;49.752;6.094;2022-07-10T09:25:46;2.05;;;0.85;;
13847;SDS011;6994;49.752;6.094;2022-07-10T09:28:13;3.35;;;0.80;;
13847;SDS011;6994;49.752;6.094;2022-07-10T09:30:40;4.25;;;0.80;;
13847;SDS011;6994;49.752;6.094;2022-07-10T09:33:14;2.05;;;1.17;;
13847;SDS011;6994;49.752;6.094;2022-07-10T09:36:01;2.90;;;1.10;;
13847;SDS011;6994;49.752;6.094;2022-07-10T09:41:28;4.78;;;2.97;;
13847;SDS011;6994;49.752;6.094;2022-07-10T09:43:57;2.17;;;1.85;;
13847;SDS011;6994;49.752;6.094;2022-07-10T09:46:37;3.30;;;1.10;;
13847;SDS011;6994;49.752;6.094;2022-07-10T09:49:05;3.10;;;1.20;;
13847;SDS011;6994;49.752;6.094;2022-07-10T09:51:41;3.85;;;1.17;;
13847;SDS011;6994;49.752;6.094;2022-07-10T09:54:10;2.00;;;1.05;;
13847;SDS011;6994;49.752;6.094;2022-07-10T09:56:41;3.42;;;0.68;;
13847;SDS011;6994;49.752;6.094;2022-07-10T09:59:11;1.55;;;0.68;;
13847;SDS011;6994;49.752;6.094;2022-07-10T10:01:40;3.55;;;0.88;;
13847;SDS011;6994;49.752;6.094;2022-07-10T10:04:05;3.50;;;0.90;;
13847;SDS011;6994;49.752;6.094;2022-07-10T10:06:32;3.97;;;1.10;;
13847;SDS011;6994;49.752;6.094;2022-07-10T10:09:03;1.42;;;0.80;;
13847;SDS011;6994;49.752;6.094;2022-07-10T10:11:29;1.73;;;0.85;;
13847;SDS011;6994;49.752;6.094;2022-07-10T10:13:56;2.03;;;0.77;;
13847;SDS011;6994;49.752;6.094;2022-07-10T10:16:24;1.58;;;1.08;;
13847;SDS011;6994;49.752;6.094;2022-07-10T10:18:52;3.95;;;1.92;;
13847;SDS011;6994;49.752;6.094;2022-07-10T10:21:37;4.15;;;2.25;;
13847;SDS011;6994;49.752;6.094;2022-07-10T10:24:04;3.83;;;1.60;;
13847;SDS011;6994;49.752;6.094;2022-07-10T10:26:32;1.20;;;1.10;;
13847;SDS011;6994;49.752;6.094;2022-07-10T10:29:00;2.42;;;1.45;;
13847;SDS011;6994;49.752;6.094;2022-07-10T10:31:27;2.95;;;1.10;;
13847;SDS011;6994;49.752;6.094;2022-07-10T10:33:57;2.67;;;1.20;;
13847;SDS011;6994;49.752;6.094;2022-07-10T10:39:04;1.83;;;0.95;;
13847;SDS011;6994;49.752;6.094;2022-07-10T10:41:36;3.50;;;0.82;;
13847;SDS011;6994;49.752;6.094;2022-07-10T10:46:34;1.42;;;0.85;;
13847;SDS011;6994;49.752;6.094;2022-07-10T10:49:08;1.73;;;0.95;;
13847;SDS011;6994;49.752;6.094;2022-07-10T10:54:27;4.35;;;2.00;;
13847;SDS011;6994;49.752;6.094;2022-07-10T10:57:13;0.95;;;0.82;;
13847;SDS011;6994;49.752;6.094;2022-07-10T11:02:24;2.75;;;1.35;;
13847;SDS011;6994;49.752;6.094;2022-07-10T11:04:47;3.80;;;1.10;;
13847;SDS011;6994;49.752;6.094;2022-07-10T11:07:14;2.03;;;0.80;;
13847;SDS011;6994;49.752;6.094;2022-07-10T11:09:41;2.67;;;1.10;;
13847;SDS011;6994;49.752;6.094;2022-07-10T11:12:09;2.72;;;1.00;;
13847;SDS011;6994;49.752;6.094;2022-07-10T11:14:36;1.52;;;1.42;;
13847;SDS011;6994;49.752;6.094;2022-07-10T11:17:03;0.77;;;0.73;;
13847;SDS011;6994;49.752;6.094;2022-07-10T11:19:30;2.25;;;0.98;;
13847;SDS011;6994;49.752;6.094;2022-07-10T11:22:03;3.08;;;0.90;;
13847;SDS011;6994;49.752;6.094;2022-07-10T11:24:42;1.05;;;0.75;;
13847;SDS011;6994;49.752;6.094;2022-07-10T11:27:36;2.33;;;0.95;;
13847;SDS011;6994;49.752;6.094;2022-07-10T11:29:57;1.90;;;1.00;;
13847;SDS011;6994;49.752;6.094;2022-07-10T11:32:23;3.50;;;1.37;;
13847;SDS011;6994;49.752;6.094;2022-07-10T11:34:50;1.75;;;1.08;;
13847;SDS011;6994;49.752;6.094;2022-07-10T11:37:18;1.27;;;1.15;;
13847;SDS011;6994;49.752;6.094;2022-07-10T11:39:45;1.90;;;1.00;;
13847;SDS011;6994;49.752;6.094;2022-07-10T11:42:12;2.00;;;0.88;;
13847;SDS011;6994;49.752;6.094;2022-07-10T11:44:39;2.70;;;1.10;;
13847;SDS011;6994;49.752;6.094;2022-07-10T11:47:07;1.87;;;0.90;;
13847;SDS011;6994;49.752;6.094;2022-07-10T11:49:34;1.42;;;0.77;;
13847;SDS011;6994;49.752;6.094;2022-07-10T11:52:02;1.35;;;1.02;;
13847;SDS011;6994;49.752;6.094;2022-07-10T11:54:28;1.65;;;1.00;;
13847;SDS011;6994;49.752;6.094;2022-07-10T11:57:03;1.48;;;1.00;;
13847;SDS011;6994;49.752;6.094;2022-07-10T11:59:24;1.27;;;0.90;;
13847;SDS011;6994;49.752;6.094;2022-07-10T12:01:52;0.85;;;0.80;;
13847;SDS011;6994;49.752;6.094;2022-07-10T12:04:19;3.45;;;1.20;;
13847;SDS011;6994;49.752;6.094;2022-07-10T12:06:45;1.20;;;1.05;;
13847;SDS011;6994;49.752;6.094;2022-07-10T12:09:13;2.25;;;1.08;;
13847;SDS011;6994;49.752;6.094;2022-07-10T12:11:43;2.85;;;1.23;;
13847;SDS011;6994;49.752;6.094;2022-07-10T12:14:13;1.37;;;0.80;;
13847;SDS011;6994;49.752;6.094;2022-07-10T12:16:46;2.47;;;1.42;;
13847;SDS011;6994;49.752;6.094;2022-07-10T12:19:16;1.95;;;1.10;;
13847;SDS011;6994;49.752;6.094;2022-07-10T12:21:44;2.87;;;1.15;;
13847;SDS011;6994;49.752;6.094;2022-07-10T12:24:10;2.65;;;1.08;;
13847;SDS011;6994;49.752;6.094;2022-07-10T12:26:38;1.42;;;0.70;;
13847;SDS011;6994;49.752;6.094;2022-07-10T12:29:05;0.93;;;0.60;;
13847;SDS011;6994;49.752;6.094;2022-07-10T12:31:32;2.08;;;1.00;;
13847;SDS011;6994;49.752;6.094;2022-07-10T12:34:00;2.55;;;0.93;;
13847;SDS011;6994;49.752;6.094;2022-07-10T12:36:43;1.77;;;0.90;;
13847;SDS011;6994;49.752;6.094;2022-07-10T12:39:10;1.95;;;1.00;;
13847;SDS011;6994;49.752;6.094;2022-07-10T12:47:09;1.10;;;0.90;;
13847;SDS011;6994;49.752;6.094;2022-07-10T12:49:56;1.70;;;0.90;;
13847;SDS011;6994;49.752;6.094;2022-07-10T12:52:30;2.45;;;0.90;;
13847;SDS011;6994;49.752;6.094;2022-07-10T12:57:49;1.62;;;0.80;;
13847;SDS011;6994;49.752;6.094;2022-07-10T13:00:25;3.15;;;0.93;;
13847;SDS011;6994;49.752;6.094;2022-07-10T13:03:16;1.75;;;0.77;;
13847;SDS011;6994;49.752;6.094;2022-07-10T13:05:33;0.80;;;0.60;;
13847;SDS011;6994;49.752;6.094;2022-07-10T13:08:06;2.78;;;0.70;;
13847;SDS011;6994;49.752;6.094;2022-07-10T13:10:37;0.70;;;0.60;;
13847;SDS011;6994;49.752;6.094;2022-07-10T13:13:04;0.50;;;0.50;;
13847;SDS011;6994;49.752;6.094;2022-07-10T13:15:31;1.00;;;0.70;;
13847;SDS011;6994;49.752;6.094;2022-07-10T13:17:59;1.15;;;0.70;;
13847;SDS011;6994;49.752;6.094;2022-07-10T13:20:26;2.30;;;0.77;;
13847;SDS011;6994;49.752;6.094;2022-07-10T13:22:53;2.47;;;0.60;;
13847;SDS011;6994;49.752;6.094;2022-07-10T13:25:21;1.70;;;0.70;;
13847;SDS011;6994;49.752;6.094;2022-07-10T13:27:48;1.48;;;0.70;;
13847;SDS011;6994;49.752;6.094;2022-07-10T13:30:15;1.45;;;0.80;;
13847;SDS011;6994;49.752;6.094;2022-07-10T13:32:42;1.75;;;0.55;;
13847;SDS011;6994;49.752;6.094;2022-07-10T13:35:09;0.80;;;0.60;;
13847;SDS011;6994;49.752;6.094;2022-07-10T13:37:37;0.95;;;0.95;;
13847;SDS011;6994;49.752;6.094;2022-07-10T13:40:04;2.20;;;0.80;;
13847;SDS011;6994;49.752;6.094;2022-07-10T13:42:31;2.83;;;0.70;;
13847;SDS011;6994;49.752;6.094;2022-07-10T13:44:58;0.45;;;0.45;;
13847;SDS011;6994;49.752;6.094;2022-07-10T13:47:26;1.00;;;0.50;;
13847;SDS011;6994;49.752;6.094;2022-07-10T13:49:53;0.50;;;0.50;;
13847;SDS011;6994;49.752;6.094;2022-07-10T13:52:20;1.23;;;0.77;;
13847;SDS011;6994;49.752;6.094;2022-07-10T13:54:48;1.12;;;0.52;;
13847;SDS011;6994;49.752;6.094;2022-07-10T13:57:15;1.02;;;0.43;;
13847;SDS011;6994;49.752;6.094;2022-07-10T13:59:42;0.77;;;0.45;;
13847;SDS011;6994;49.752;6.094;2022-07-10T14:02:11;1.20;;;0.60;;
13847;SDS011;6994;49.752;6.094;2022-07-10T14:04:38;1.10;;;1.00;;
13847;SDS011;6994;49.752;6.094;2022-07-10T14:07:06;1.02;;;0.40;;
13847;SDS011;6994;49.752;6.094;2022-07-10T14:09:34;0.88;;;0.57;;
13847;SDS011;6994;49.752;6.094;2022-07-10T14:12:02;0.90;;;0.60;;
13847;SDS011;6994;49.752;6.094;2022-07-10T14:14:29;1.95;;;0.80;;
13847;SDS011;6994;49.752;6.094;2022-07-10T14:16:56;2.55;;;0.55;;
13847;SDS011;6994;49.752;6.094;2022-07-10T14:19:23;1.87;;;0.52;;
13847;SDS011;6994;49.752;6.094;2022-07-10T14:21:50;1.62;;;0.80;;
13847;SDS011;6994;49.752;6.094;2022-07-10T14:24:18;0.50;;;0.43;;
13847;SDS011;6994;49.752;6.094;2022-07-10T14:26:45;3.33;;;0.60;;
13847;SDS011;6994;49.752;6.094;2022-07-10T14:29:12;1.02;;;0.90;;
13847;SDS011;6994;49.752;6.094;2022-07-10T14:31:39;0.50;;;0.50;;
13847;SDS011;6994;49.752;6.094;2022-07-10T14:34:07;0.93;;;0.65;;
13847;SDS011;6994;49.752;6.094;2022-07-10T14:36:35;2.05;;;0.40;;
13847;SDS011;6994;49.752;6.094;2022-07-10T14:39:03;0.40;;;0.30;;
13847;SDS011;6994;49.752;6.094;2022-07-10T14:41:31;2.17;;;0.50;;
13847;SDS011;6994;49.752;6.094;2022-07-10T14:43:58;1.50;;;0.70;;
13847;SDS011;6994;49.752;6.094;2022-07-10T14:46:26;4.12;;;0.90;;
13847;SDS011;6994;49.752;6.094;2022-07-10T14:48:53;0.82;;;0.60;;
13847;SDS011;6994;49.752;6.094;2022-07-10T14:51:20;1.00;;;0.50;;
13847;SDS011;6994;49.752;6.094;2022-07-10T14:53:47;0.77;;;0.40;;
13847;SDS011;6994;49.752;6.094;2022-07-10T14:56:14;0.80;;;0.50;;
13847;SDS011;6994;49.752;6.094;2022-07-10T14:58:42;2.80;;;0.50;;
13847;SDS011;6994;49.752;6.094;2022-07-10T15:01:09;1.37;;;0.55;;
13847;SDS011;6994;49.752;6.094;2022-07-10T15:03:36;3.92;;;0.57;;
13847;SDS011;6994;49.752;6.094;2022-07-10T15:06:04;2.05;;;0.40;;
13847;SDS011;6994;49.752;6.094;2022-07-10T15:08:32;0.95;;;0.50;;
13847;SDS011;6994;49.752;6.094;2022-07-10T15:11:00;1.90;;;0.73;;
13847;SDS011;6994;49.752;6.094;2022-07-10T15:13:28;2.00;;;0.60;;
13847;SDS011;6994;49.752;6.094;2022-07-10T15:15:55;1.95;;;0.60;;
13847;SDS011;6994;49.752;6.094;2022-07-10T15:18:22;0.60;;;0.60;;
13847;SDS011;6994;49.752;6.094;2022-07-10T15:20:49;1.95;;;0.70;;
13847;SDS011;6994;49.752;6.094;2022-07-10T15:23:17;1.80;;;0.73;;
13847;SDS011;6994;49.752;6.094;2022-07-10T15:25:44;1.17;;;0.52;;
13847;SDS011;6994;49.752;6.094;2022-07-10T15:28:11;0.70;;;0.57;;